Time;durP1;ratioP1;P1;durP2;ratioP2;P2;SDS_P1;SDS_P2;PMS_P1;PMS_P2;Temp;Humidity;BMP_temperature;BMP_pressure;BME280_temperature;BME280_humidity;BME280_pressure;Samples;Min_cycle;Max_cycle;Signal;HPM_P1;HPM_P2
2021/07/07 00:01:48;;;;;;;12.40;4.18;;;;;;;17.89;100.00;97737.78;5017637;28;20045;-79
2021/07/07 00:04:15;;;;;;;7.18;3.17;;;;;;;17.86;100.00;97757.69;5034420;28;20041;-78
2021/07/07 00:06:42;;;;;;;9.57;3.00;;;;;;;17.78;100.00;97756.72;5019322;28;20494;-79
2021/07/07 00:09:08;;;;;;;9.07;3.10;;;;;;;17.77;100.00;97746.16;5013969;28;20053;-79
2021/07/07 00:11:35;;;;;;;12.05;3.13;;;;;;;17.77;100.00;97762.56;5035488;28;20045;-79
2021/07/07 00:14:11;;;;;;;13.30;3.55;;;;;;;17.71;100.00;97764.78;5019403;28;20123;-79
2021/07/07 00:16:38;;;;;;;6.80;2.80;;;;;;;17.72;100.00;97771.06;5038381;28;20037;-79
2021/07/07 00:19:04;;;;;;;15.25;3.78;;;;;;;17.69;100.00;97775.31;5038112;28;20060;-78
2021/07/07 00:21:32;;;;;;;9.68;3.40;;;;;;;17.70;100.00;97787.88;5038217;28;20053;-79
2021/07/07 00:23:59;;;;;;;13.70;3.83;;;;;;;17.71;100.00;97794.91;5033909;28;20037;-78
2021/07/07 00:26:26;;;;;;;16.20;4.50;;;;;;;17.79;100.00;97796.66;5035439;28;20072;-80
2021/07/07 00:28:52;;;;;;;10.45;3.85;;;;;;;17.78;100.00;97786.09;5002644;28;20149;-79
2021/07/07 00:31:20;;;;;;;6.13;3.60;;;;;;;17.71;100.00;97772.22;5021330;28;20053;-79
2021/07/07 00:33:47;;;;;;;7.75;3.83;;;;;;;17.69;100.00;97755.34;5037139;28;20038;-78
2021/07/07 00:36:14;;;;;;;10.88;3.70;;;;;;;17.64;100.00;97748.22;5037199;28;20065;-79
2021/07/07 00:38:40;;;;;;;8.23;3.25;;;;;;;17.57;100.00;97737.13;5039641;28;20070;-80
2021/07/07 00:41:07;;;;;;;6.70;2.85;;;;;;;17.47;100.00;97748.59;5039361;28;20041;-80
2021/07/07 00:43:34;;;;;;;9.70;3.50;;;;;;;17.45;100.00;97738.00;5036061;28;20538;-80
2021/07/07 00:46:02;;;;;;;8.77;2.90;;;;;;;17.44;100.00;97739.16;5040251;28;20057;-81
2021/07/07 00:48:31;;;;;;;14.93;3.20;;;;;;;17.40;100.00;97749.22;5039134;28;20041;-79
2021/07/07 00:50:59;;;;;;;12.63;3.80;;;;;;;17.37;100.00;97751.84;5020502;28;20042;-81
2021/07/07 00:53:27;;;;;;;9.95;3.33;;;;;;;17.46;100.00;97744.25;5035873;28;20132;-80
2021/07/07 00:55:58;;;;;;;8.73;2.67;;;;;;;17.38;100.00;97751.53;5019412;28;20045;-81
2021/07/07 00:58:26;;;;;;;9.05;3.30;;;;;;;17.39;100.00;97758.56;5035433;28;20041;-80
2021/07/07 01:00:53;;;;;;;6.15;2.10;;;;;;;17.28;100.00;97757.53;5036234;28;20052;-80
2021/07/07 01:03:19;;;;;;;8.13;2.60;;;;;;;17.15;100.00;97758.00;5037278;28;20046;-79
2021/07/07 01:05:46;;;;;;;5.85;2.83;;;;;;;17.11;100.00;97741.47;5018661;28;20045;-79
2021/07/07 01:08:13;;;;;;;4.93;2.00;;;;;;;16.93;100.00;97714.88;5034022;28;20042;-79
2021/07/07 01:10:39;;;;;;;3.03;1.85;;;;;;;16.92;100.00;97713.28;5036859;28;20049;-79
2021/07/07 01:13:06;;;;;;;6.03;2.22;;;;;;;16.98;100.00;97709.91;5017360;28;20117;-80
2021/07/07 01:15:36;;;;;;;7.55;2.28;;;;;;;17.01;100.00;97722.09;5015090;28;20046;-78
2021/07/07 01:18:03;;;;;;;4.07;1.92;;;;;;;16.91;100.00;97703.47;5016473;28;20072;-77
2021/07/07 01:20:31;;;;;;;5.30;1.88;;;;;;;16.74;100.00;97699.16;5016997;28;20040;-79
2021/07/07 01:22:57;;;;;;;6.95;1.80;;;;;;;16.60;100.00;97699.59;5016120;28;20527;-78
2021/07/07 01:25:25;;;;;;;4.15;2.05;;;;;;;16.55;100.00;97690.88;5016172;28;20056;-78
2021/07/07 01:27:53;;;;;;;3.85;1.83;;;;;;;16.48;100.00;97687.94;5035264;28;20049;-78
2021/07/07 01:30:22;;;;;;;4.50;1.75;;;;;;;16.45;100.00;97686.69;5016082;28;20104;-80
2021/07/07 01:32:52;;;;;;;6.68;1.98;;;;;;;16.46;100.00;97690.22;5033337;28;20049;-80
2021/07/07 01:35:20;;;;;;;2.60;1.60;;;;;;;16.35;100.00;97700.06;5016088;28;20048;-78
2021/07/07 01:37:50;;;;;;;3.95;1.80;;;;;;;16.30;100.00;97701.13;5015919;28;20057;-80
2021/07/07 01:40:24;;;;;;;5.55;2.10;;;;;;;16.29;100.00;97702.25;5000416;28;20049;-80
2021/07/07 01:42:51;;;;;;;4.25;2.20;;;;;;;16.27;100.00;97707.28;5032810;28;20049;-79
2021/07/07 01:45:23;;;;;;;2.80;1.80;;;;;;;16.19;100.00;97721.91;5034955;28;20045;-80
2021/07/07 01:47:53;;;;;;;5.43;1.90;;;;;;;16.10;100.00;97713.06;5036102;28;20045;-80
2021/07/07 01:50:22;;;;;;;5.93;1.95;;;;;;;16.02;100.00;97712.09;5021889;28;20033;-79
2021/07/07 01:52:49;;;;;;;7.75;2.35;;;;;;;16.00;100.00;97714.34;5038853;28;20045;-79
2021/07/07 01:55:17;;;;;;;3.05;2.00;;;;;;;16.04;100.00;97701.59;5038259;28;20480;-79
2021/07/07 01:57:46;;;;;;;5.50;2.70;;;;;;;16.09;100.00;97700.56;5035392;28;20052;-79
2021/07/07 02:00:14;;;;;;;6.50;2.63;;;;;;;16.11;100.00;97728.31;5034214;28;20037;-78
2021/07/07 02:02:41;;;;;;;4.93;2.60;;;;;;;16.11;100.00;97731.84;5015594;28;20446;-79
2021/07/07 02:05:09;;;;;;;6.80;2.70;;;;;;;16.14;100.00;97712.03;5034570;28;20568;-79
2021/07/07 02:07:35;;;;;;;9.98;2.60;;;;;;;16.12;100.00;97727.97;5019659;28;20063;-79
2021/07/07 02:10:06;;;;;;;10.40;2.25;;;;;;;16.04;100.00;97707.06;5024032;28;20049;-79
2021/07/07 02:12:32;;;;;;;8.02;2.47;;;;;;;16.00;100.00;97697.19;4980239;28;20054;-79
2021/07/07 02:15:00;;;;;;;5.90;1.90;;;;;;;15.91;100.00;97694.59;5013825;28;20246;-80
2021/07/07 02:17:26;;;;;;;9.55;1.90;;;;;;;15.87;100.00;97693.69;5014842;28;20042;-78
2021/07/07 02:19:53;;;;;;;6.57;1.30;;;;;;;15.70;100.00;97672.16;4997149;28;20077;-80
2021/07/07 02:22:19;;;;;;;2.97;1.20;;;;;;;15.51;100.00;97661.88;5013536;28;20116;-79
2021/07/07 02:24:47;;;;;;;2.58;1.00;;;;;;;15.41;100.00;97661.53;4997087;28;20100;-78
2021/07/07 02:27:14;;;;;;;6.50;1.40;;;;;;;15.37;100.00;97677.81;4995791;28;20069;-79
2021/07/07 02:29:40;;;;;;;6.35;1.40;;;;;;;15.36;100.00;97675.41;5011908;28;20050;-79
2021/07/07 02:32:07;;;;;;;4.25;1.55;;;;;;;15.45;100.00;97687.84;5016910;23;20042;-81
2021/07/07 02:34:34;;;;;;;4.88;1.83;;;;;;;15.48;100.00;97705.44;5012034;28;20416;-78
2021/07/07 02:37:01;;;;;;;5.05;2.13;;;;;;;15.50;100.00;97705.88;5011823;28;20489;-78
2021/07/07 02:39:27;;;;;;;3.80;1.92;;;;;;;15.46;100.00;97716.69;4994596;28;20130;-79
2021/07/07 02:41:54;;;;;;;3.83;1.50;;;;;;;15.41;100.00;97727.81;5012025;28;20046;-78
2021/07/07 02:44:20;;;;;;;6.43;1.90;;;;;;;15.31;100.00;97733.75;5028631;23;20115;-85
2021/07/07 02:46:47;;;;;;;5.10;1.70;;;;;;;15.31;100.00;97731.00;5019229;28;20091;-84
2021/07/07 02:49:14;;;;;;;5.35;1.70;;;;;;;15.34;100.00;97724.06;5035533;28;20046;-84
2021/07/07 08:45:24;;;;;;;6.40;2.75;;;;;;;16.27;100.00;98029.69;5024353;23;20111;-85
2021/07/07 08:47:54;;;;;;;7.72;2.85;;;;;;;16.44;100.00;98031.38;5018355;28;20049;-86
2021/07/07 08:50:23;;;;;;;7.22;2.75;;;;;;;16.56;100.00;98025.94;5015816;28;20137;-83
2021/07/07 08:52:51;;;;;;;4.75;2.50;;;;;;;16.59;100.00;98020.59;4981783;28;20054;-81
2021/07/07 08:55:24;;;;;;;4.57;2.42;;;;;;;16.67;100.00;98002.44;4981675;28;20282;-83
2021/07/07 08:57:51;;;;;;;5.25;2.58;;;;;;;16.78;100.00;98011.75;5015857;28;20069;-84
2021/07/07 09:00:30;;;;;;;4.18;2.28;;;;;;;16.94;100.00;98000.88;5015085;28;20098;-86
2021/07/07 09:03:08;;;;;;;6.40;2.10;;;;;;;17.17;100.00;97997.25;4981918;28;20054;-84
2021/07/07 09:05:56;;;;;;;3.92;2.10;;;;;;;17.49;100.00;97998.13;4997803;28;20406;-83
2021/07/07 09:08:23;;;;;;;5.07;2.40;;;;;;;17.52;100.00;98002.09;5015217;28;20049;-83
2021/07/07 09:10:50;;;;;;;5.15;2.20;;;;;;;17.57;100.00;98005.41;5015871;28;20430;-84
2021/07/07 09:13:21;;;;;;;4.05;2.20;;;;;;;17.42;100.00;98017.13;5014563;28;20121;-82
2021/07/07 09:15:51;;;;;;;5.43;1.83;;;;;;;17.68;100.00;98019.41;5015458;28;20042;-83
2021/07/07 09:18:19;;;;;;;3.78;1.92;;;;;;;17.62;100.00;98018.84;5016034;28;20495;-83
2021/07/07 09:20:46;;;;;;;5.38;2.28;;;;;;;17.73;100.00;98028.13;4983245;28;20038;-82
2021/07/07 09:23:26;;;;;;;3.45;2.00;;;;;;;17.96;100.00;98015.41;4997665;28;20057;-83
2021/07/07 09:26:04;;;;;;;4.20;1.65;;;;;;;17.55;100.00;98026.09;4997737;28;20053;-83
2021/07/07 09:28:35;;;;;;;3.63;1.98;;;;;;;17.72;100.00;98031.22;4995998;28;20069;-82
2021/07/07 09:31:31;;;;;;;4.05;1.52;;;;;;;17.89;100.00;98033.63;5016299;28;20096;-82
2021/07/07 09:34:11;;;;;;;4.80;1.70;;;;;;;17.98;100.00;98045.22;5015947;28;20061;-83
2021/07/07 09:36:41;;;;;;;5.68;1.80;;;;;;;17.78;100.00;98054.47;5000828;28;20051;-83
2021/07/07 09:39:08;;;;;;;3.08;1.98;;;;;;;17.84;100.00;98055.78;5016154;28;20057;-83
2021/07/07 09:41:35;;;;;;;2.92;1.88;;;;;;;17.75;100.00;98052.44;5017367;28;20446;-84
2021/07/07 09:44:02;;;;;;;8.38;2.22;;;;;;;17.85;100.00;98066.41;4994578;28;20084;-83
2021/07/07 09:46:29;;;;;;;5.00;2.17;;;;;;;17.95;100.00;98056.88;4994572;28;20045;-83
2021/07/07 09:48:56;;;;;;;7.25;2.40;;;;;;;17.91;100.00;98054.03;4996256;28;20462;-82
2021/07/07 09:51:22;;;;;;;4.40;2.08;;;;;;;17.65;100.00;98061.97;5014161;28;20049;-83
2021/07/07 09:53:49;;;;;;;5.20;2.03;;;;;;;18.39;100.00;98047.41;5013107;28;20069;-83
2021/07/07 09:56:16;;;;;;;3.17;1.75;;;;;;;18.68;100.00;98046.94;5014288;28;20049;-82
2021/07/07 09:58:42;;;;;;;5.38;2.20;;;;;;;18.59;100.00;98035.38;5012903;28;20085;-83
2021/07/07 10:01:09;;;;;;;3.95;1.88;;;;;;;18.23;100.00;98048.56;5013720;28;20053;-82
2021/07/07 10:03:36;;;;;;;4.20;1.83;;;;;;;18.53;100.00;98055.97;4996601;28;20132;-83
2021/07/07 10:06:05;;;;;;;3.33;1.95;;;;;;;18.65;100.00;98053.16;5014348;28;20056;-84
2021/07/07 10:08:34;;;;;;;3.70;1.90;;;;;;;18.94;100.00;98037.31;5015122;28;20145;-81
2021/07/07 10:11:01;;;;;;;3.13;1.67;;;;;;;19.38;100.00;98033.19;5016066;28;20042;-82
2021/07/07 10:13:28;;;;;;;3.13;1.58;;;;;;;19.08;100.00;98024.69;4996314;28;20457;-81
2021/07/07 10:15:55;;;;;;;4.95;2.25;;;;;;;19.01;100.00;98026.50;5013451;28;20077;-85
2021/07/07 10:18:23;;;;;;;6.63;1.70;;;;;;;18.69;100.00;98023.03;4983048;28;20050;-83
2021/07/07 10:20:51;;;;;;;2.83;1.67;;;;;;;19.39;100.00;98026.50;4997261;28;20052;-83
2021/07/07 10:23:19;;;;;;;3.28;1.70;;;;;;;19.47;100.00;98008.22;4997209;28;20049;-85
2021/07/07 10:25:57;;;;;;;5.18;2.10;;;;;;;18.99;100.00;98021.38;4997004;28;20056;-84
2021/07/07 10:28:27;;;;;;;6.28;2.00;;;;;;;19.02;100.00;98023.38;4980240;28;20099;-84
2021/07/07 10:30:59;;;;;;;4.53;2.08;;;;;;;19.22;100.00;98035.97;4996407;28;20042;-82
2021/07/07 10:33:32;;;;;;;5.50;1.95;;;;;;;19.36;100.00;98037.41;4997470;28;20042;-83
2021/07/07 10:36:19;;;;;;;3.60;2.08;;;;;;;19.24;100.00;98032.84;4998575;28;20042;-84
2021/07/07 10:38:53;;;;;;;5.20;2.42;;;;;;;19.68;100.00;98034.13;5014496;28;20042;-85
2021/07/07 10:41:41;;;;;;;7.25;2.20;;;;;;;19.71;100.00;98041.66;4997690;28;20093;-84
2021/07/07 10:44:10;;;;;;;5.80;1.90;;;;;;;19.44;100.00;98022.66;4998473;28;20044;-84
2021/07/07 10:47:18;;;;;;;8.10;2.17;;;;;;;19.50;100.00;98016.53;4998396;28;20060;-84
2021/07/07 10:49:47;;;;;;;7.38;2.10;;;;;;;19.47;100.00;98020.00;5000182;28;20085;-83
2021/07/07 10:52:17;;;;;;;3.75;1.77;;;;;;;20.27;100.00;98022.63;4997018;28;20281;-82
2021/07/07 10:54:58;;;;;;;3.45;2.00;;;;;;;20.56;100.00;98010.09;5014282;28;20072;-85
2021/07/07 10:57:35;;;;;;;2.65;1.60;;;;;;;20.82;100.00;98012.84;5013934;28;20069;-84
2021/07/07 11:00:06;;;;;;;3.92;1.90;;;;;;;21.17;100.00;98014.47;5014210;28;20053;-84
2021/07/07 11:02:33;;;;;;;4.45;2.10;;;;;;;21.84;100.00;98015.22;5013952;28;20507;-84
2021/07/07 11:05:02;;;;;;;3.38;1.45;;;;;;;21.67;100.00;98016.63;4998844;28;20068;-85
2021/07/07 11:07:30;;;;;;;3.75;1.90;;;;;;;21.58;100.00;98016.94;5026799;28;20528;-84
2021/07/07 11:10:07;;;;;;;6.63;2.20;;;;;;;20.89;100.00;98025.88;5016972;28;20045;-82
2021/07/07 11:12:40;;;;;;;3.70;2.00;;;;;;;21.17;100.00;98036.50;5017134;28;20111;-84
2021/07/07 11:15:11;;;;;;;4.20;1.70;;;;;;;21.68;100.00;98026.47;4979919;28;20462;-83
2021/07/07 11:17:40;;;;;;;2.10;1.33;;;;;;;21.77;100.00;98029.72;5015062;28;20042;-82
2021/07/07 11:20:08;;;;;;;3.88;1.50;;;;;;;21.42;100.00;98029.34;5014170;28;20062;-82
2021/07/07 11:22:37;;;;;;;2.47;1.65;;;;;;;21.63;100.00;98035.88;4980985;28;20133;-84
2021/07/07 11:25:06;;;;;;;2.05;1.52;;;;;;;23.01;100.00;98023.25;4996165;28;20052;-83
2021/07/07 11:27:33;;;;;;;2.60;1.45;;;;;;;23.14;100.00;98021.72;4998079;28;20053;-83
2021/07/07 11:30:01;;;;;;;6.53;1.30;;;;;;;22.95;100.00;98025.56;5015596;28;20053;-83
2021/07/07 11:32:38;;;;;;;3.05;1.40;;;;;;;22.73;100.00;98032.16;4999138;28;20080;-85
2021/07/07 11:35:08;;;;;;;2.45;1.30;;;;;;;22.07;100.00;98032.41;4998468;28;20054;-84
2021/07/07 11:37:36;;;;;;;6.07;1.20;;;;;;;22.44;100.00;98035.88;4995568;28;20046;-84
2021/07/07 11:40:17;;;;;;;2.13;1.00;;;;;;;23.77;100.00;98025.94;5012477;28;20066;-82
2021/07/07 11:42:53;;;;;;;2.85;1.17;;;;;;;24.54;100.00;98027.97;5014862;28;20414;-84
2021/07/07 11:45:28;;;;;;;2.95;1.10;;;;;;;23.24;100.00;98017.44;5020270;28;20502;-85
2021/07/07 11:48:06;;;;;;;2.55;1.17;;;;;;;23.35;100.00;98029.31;5008827;28;20046;-86
2021/07/07 11:50:32;;;;;;;4.25;1.23;;;;;;;23.52;100.00;98026.66;5026662;28;20096;-84
2021/07/07 11:53:05;;;;;;;4.30;1.15;;;;;;;23.67;100.00;98029.47;5030076;28;20042;-84
2021/07/07 11:55:56;;;;;;;3.90;1.02;;;;;;;24.43;100.00;98038.25;5029807;28;20054;-81
2021/07/07 11:58:31;;;;;;;6.60;1.45;;;;;;;23.27;100.00;98028.50;5019771;28;20121;-82
2021/07/07 12:01:09;;;;;;;3.75;1.40;;;;;;;23.78;100.00;98031.06;5020086;28;20076;-81
2021/07/07 12:03:37;;;;;;;4.30;1.08;;;;;;;24.18;100.00;98018.91;5019964;28;20061;-81
2021/07/07 12:06:11;;;;;;;2.20;1.23;;;;;;;24.55;100.00;98026.75;5020473;28;20038;-81
2021/07/07 12:08:41;;;;;;;6.28;1.23;;;;;;;24.39;100.00;98027.16;5002807;28;20065;-83
2021/07/07 12:11:18;;;;;;;2.67;1.27;;;;;;;24.04;100.00;98027.94;5004241;28;20120;-84
2021/07/07 12:13:50;;;;;;;5.78;1.20;;;;;;;23.46;100.00;98019.13;5020420;28;20314;-84
2021/07/07 12:16:25;;;;;;;4.72;1.35;;;;;;;22.86;100.00;98022.38;5003509;28;20050;-84
2021/07/07 12:18:54;;;;;;;3.83;1.33;;;;;;;22.55;100.00;98019.38;5020638;28;20112;-82
2021/07/07 12:21:23;;;;;;;2.47;1.00;;;;;;;23.74;100.00;98021.97;5004020;28;20096;-83
2021/07/07 12:23:53;;;;;;;7.22;1.30;;;;;;;23.91;100.00;98009.34;4992828;28;20096;-80
2021/07/07 12:26:25;;;;;;;4.50;1.33;;;;;;;24.08;100.00;98017.69;5029291;28;20046;-82
2021/07/07 12:28:57;;;;;;;2.70;1.45;;;;;;;24.43;100.00;98014.13;5006648;28;20108;-83
2021/07/07 12:31:28;;;;;;;7.47;1.30;;;;;;;25.70;100.00;98022.09;5006211;28;20046;-80
2021/07/07 12:33:56;;;;;;;7.43;1.27;;;;;;;26.16;100.00;98018.25;5027619;28;20049;-83
2021/07/07 12:36:34;;;;;;;2.28;1.10;;;;;;;27.25;100.00;98002.50;5008618;28;20473;-83
2021/07/07 12:39:14;;;;;;;6.30;1.13;;;;;;;27.77;100.00;98001.03;5026190;28;20042;-80
2021/07/07 12:41:44;;;;;;;2.08;1.20;;;;;;;27.86;100.00;97994.94;5007188;28;20084;-83
2021/07/07 12:44:15;;;;;;;4.18;1.30;;;;;;;27.67;100.00;97999.97;5023385;28;20038;-83
2021/07/07 12:47:02;;;;;;;5.40;1.10;;;;;;;30.13;100.00;98002.13;5007647;28;20045;-83
2021/07/07 12:49:49;;;;;;;3.63;0.90;;;;;;;31.41;94.70;97991.94;5009384;28;20141;-83
2021/07/07 12:52:29;;;;;;;2.78;0.98;;;;;;;29.56;97.18;97994.25;5027629;28;20042;-84
2021/07/07 12:55:16;;;;;;;2.35;0.80;;;;;;;29.14;100.00;98011.06;5023867;28;20441;-81
2021/07/07 12:58:05;;;;;;;2.28;0.88;;;;;;;27.46;100.00;98013.38;5007925;28;20049;-83
2021/07/07 13:00:43;;;;;;;2.03;0.63;;;;;;;26.70;100.00;98028.47;4993099;28;20085;-82
2021/07/07 13:03:19;;;;;;;3.22;0.80;;;;;;;27.19;100.00;97997.41;5007426;28;20040;-81
2021/07/07 13:05:53;;;;;;;3.45;0.80;;;;;;;29.34;100.00;97992.34;5004584;28;20046;-83
2021/07/07 13:08:45;;;;;;;3.78;0.85;;;;;;;28.30;100.00;98005.78;5001670;28;20050;-82
2021/07/07 13:11:20;;;;;;;4.43;0.75;;;;;;;26.54;100.00;98011.56;5020497;28;20056;-81
2021/07/07 13:13:49;;;;;;;1.77;0.80;;;;;;;25.79;100.00;98018.84;5002237;28;20068;-79
2021/07/07 13:16:20;;;;;;;2.03;0.88;;;;;;;25.02;100.00;98009.69;5018757;28;20546;-79
2021/07/07 13:19:05;;;;;;;6.38;1.00;;;;;;;24.75;100.00;98019.63;5019923;28;20403;-82
2021/07/07 13:21:49;;;;;;;3.40;0.80;;;;;;;26.82;100.00;98029.97;5021318;28;20414;-83
2021/07/07 13:24:21;;;;;;;2.70;0.93;;;;;;;27.27;100.00;98027.88;5020182;28;20054;-82
2021/07/07 13:26:58;;;;;;;1.55;0.70;;;;;;;27.43;100.00;98023.34;5004016;28;20060;-84
2021/07/07 13:29:32;;;;;;;3.70;0.80;;;;;;;26.47;100.00;98019.97;5022233;28;20498;-82
2021/07/07 13:32:15;;;;;;;3.70;1.08;;;;;;;24.88;100.00;98036.66;4987681;28;20042;-80
2021/07/07 13:35:06;;;;;;;3.40;0.85;;;;;;;25.27;100.00;98037.31;5021490;28;20144;-80
2021/07/07 13:37:36;;;;;;;4.38;0.90;;;;;;;26.73;100.00;98019.31;5023258;28;20042;-81
2021/07/07 13:40:08;;;;;;;2.58;0.93;;;;;;;28.42;100.00;98017.13;5022674;28;20054;-82
2021/07/07 13:42:38;;;;;;;2.22;0.90;;;;;;;29.19;100.00;98010.56;5020848;28;20042;-83
2021/07/07 13:45:08;;;;;;;2.22;1.00;;;;;;;28.68;100.00;98020.28;4999083;28;20112;-84
2021/07/07 13:47:34;;;;;;;7.60;1.10;;;;;;;30.98;66.86;98015.97;5019870;28;20053;-83
2021/07/07 13:50:04;;;;;;;1.30;0.90;;;;;;;33.71;60.30;97993.41;5005745;28;20506;-83
2021/07/07 13:52:31;;;;;;;3.13;1.00;;;;;;;35.50;47.38;97989.84;5018971;28;20522;-82
2021/07/07 13:54:58;;;;;;;4.18;1.70;;;;;;;35.05;45.51;98007.56;5007854;28;20040;-83
2021/07/07 13:57:25;;;;;;;2.28;1.83;;;;;;;35.00;44.01;98001.75;5013951;28;20057;-84
2021/07/07 13:59:52;;;;;;;2.80;1.73;;;;;;;34.06;46.61;97990.47;5031908;28;20042;-86
2021/07/07 14:02:19;;;;;;;2.28;1.60;;;;;;;33.16;47.27;97992.28;5032519;28;20045;-83
2021/07/07 14:04:45;;;;;;;5.57;1.77;;;;;;;32.43;60.00;98001.22;5031118;28;20074;-84
2021/07/07 14:07:12;;;;;;;2.60;1.77;;;;;;;31.12;62.95;97998.81;5031196;28;20072;-85
2021/07/07 14:09:39;;;;;;;3.80;1.73;;;;;;;32.28;53.33;97995.31;5028036;28;20050;-83
2021/07/07 14:12:06;;;;;;;2.90;1.70;;;;;;;33.66;49.75;98005.22;5023373;28;20046;-84
2021/07/07 14:14:35;;;;;;;3.08;1.70;;;;;;;34.33;45.78;98004.59;4986161;28;20050;-83
2021/07/07 14:17:03;;;;;;;2.35;1.40;;;;;;;32.98;47.63;98006.13;5010482;28;20037;-83
2021/07/07 14:19:30;;;;;;;4.22;1.70;;;;;;;33.34;44.63;98002.84;5027218;28;20582;-83
2021/07/07 14:21:57;;;;;;;2.38;1.60;;;;;;;29.53;67.10;97991.53;5024929;28;20038;-83
2021/07/07 14:24:23;;;;;;;2.53;1.58;;;;;;;28.64;88.66;98003.66;5008856;28;20132;-84
2021/07/07 14:26:51;;;;;;;2.25;1.60;;;;;;;28.61;90.62;98004.50;5024906;28;20061;-83
2021/07/07 14:29:19;;;;;;;2.70;1.20;;;;;;;27.49;100.00;97999.41;5007429;28;20061;-83
2021/07/07 14:31:46;;;;;;;5.80;1.35;;;;;;;26.72;100.00;98005.81;5027837;28;20107;-84
2021/07/07 14:34:17;;;;;;;4.10;1.35;;;;;;;27.19;100.00;98008.53;5020835;23;20038;-76
2021/07/07 14:36:44;;;;;;;2.78;1.40;;;;;;;27.15;100.00;97999.41;4989616;28;20045;-76
2021/07/07 14:39:11;;;;;;;3.38;1.50;;;;;;;27.02;100.00;98001.16;4989479;28;20097;-75
2021/07/07 14:41:38;;;;;;;3.38;1.52;;;;;;;26.82;100.00;98002.97;4988373;28;20066;-75
2021/07/07 14:44:05;;;;;;;5.65;1.48;;;;;;;26.55;100.00;98010.38;4989573;28;20046;-76
2021/07/07 14:46:34;;;;;;;3.80;1.58;;;;;;;25.56;100.00;98008.28;4972036;28;20049;-76
2021/07/07 14:49:01;;;;;;;3.28;1.63;;;;;;;25.10;100.00;98016.00;5029516;23;20068;-77
2021/07/07 14:51:27;;;;;;;5.22;1.30;;;;;;;25.00;100.00;98008.50;5036596;28;20053;-77
2021/07/07 14:53:54;;;;;;;1.83;1.00;;;;;;;24.73;100.00;98010.91;5037672;28;20048;-77
2021/07/07 14:56:23;;;;;;;2.35;0.90;;;;;;;24.31;100.00;98011.78;5038032;28;20048;-77
2021/07/07 14:58:50;;;;;;;2.97;1.05;;;;;;;24.31;100.00;98013.75;4997733;28;20387;-77
2021/07/07 15:01:17;;;;;;;3.30;1.10;;;;;;;23.81;100.00;98012.88;5023752;28;20045;-80
2021/07/07 15:03:44;;;;;;;2.45;0.90;;;;;;;23.60;100.00;98015.59;4997995;28;20046;-79
2021/07/07 15:06:10;;;;;;;4.40;1.10;;;;;;;23.17;100.00;98023.72;5003184;28;20081;-78
2021/07/07 15:08:37;;;;;;;3.20;1.25;;;;;;;23.24;100.00;98017.44;4990135;28;20074;-82
2021/07/07 15:11:04;;;;;;;2.45;1.17;;;;;;;23.55;100.00;98014.81;5006950;28;20050;-78
2021/07/07 15:13:31;;;;;;;4.88;1.30;;;;;;;23.97;100.00;98008.56;4999646;28;20100;-79
2021/07/07 15:15:57;;;;;;;6.85;1.42;;;;;;;25.96;100.00;98001.31;5017179;28;20403;-78
2021/07/07 15:18:24;;;;;;;5.47;2.20;;;;;;;28.56;100.00;98002.16;5020368;28;20053;-76
2021/07/07 15:20:51;;;;;;;3.78;1.00;;;;;;;30.27;80.21;98007.38;5001556;28;20052;-78
2021/07/07 15:23:17;;;;;;;1.67;0.80;;;;;;;30.52;64.10;97998.41;4985162;28;20112;-78
2021/07/07 15:26:04;;;;;;;1.65;0.90;;;;;;;29.54;74.77;97999.47;4998765;28;20052;-77
2021/07/07 15:28:30;;;;;;;3.38;1.17;;;;;;;29.50;96.25;97998.00;5016003;28;20056;-77
2021/07/07 15:30:57;;;;;;;5.07;1.15;;;;;;;28.12;100.00;97991.38;5000288;28;20123;-76
2021/07/07 15:33:28;;;;;;;5.20;1.00;;;;;;;26.85;100.00;98001.34;5015198;28;20046;-77
2021/07/07 15:35:55;;;;;;;2.42;1.20;;;;;;;26.68;100.00;97996.75;4992865;28;20049;-78
2021/07/07 15:38:21;;;;;;;1.77;1.00;;;;;;;25.74;100.00;98003.44;4994221;28;20061;-79
2021/07/07 15:40:48;;;;;;;1.45;0.93;;;;;;;25.84;100.00;98002.56;5005151;28;20045;-79
2021/07/07 15:43:15;;;;;;;2.38;1.10;;;;;;;25.86;100.00;98000.19;4990725;28;20038;-80
2021/07/07 15:45:41;;;;;;;4.15;1.10;;;;;;;25.53;100.00;97998.00;5005135;28;20050;-78
2021/07/07 15:48:11;;;;;;;4.50;1.20;;;;;;;25.51;100.00;97996.84;4984154;28;20038;-77
2021/07/07 15:50:38;;;;;;;3.53;1.10;;;;;;;24.81;100.00;97998.66;4983398;28;20042;-77
2021/07/07 15:53:05;;;;;;;4.93;0.82;;;;;;;24.17;100.00;97997.94;4983930;28;20494;-77
2021/07/07 15:55:32;;;;;;;3.30;1.00;;;;;;;23.96;100.00;97997.88;5008775;28;20056;-77
2021/07/07 15:57:59;;;;;;;1.88;0.90;;;;;;;23.74;100.00;98002.63;4991235;28;20038;-78
2021/07/07 16:00:27;;;;;;;2.25;1.00;;;;;;;23.39;100.00;97996.97;4984949;28;20714;-78
2021/07/07 16:02:54;;;;;;;1.30;0.70;;;;;;;23.53;100.00;98003.38;4982802;28;20464;-78
2021/07/07 16:05:20;;;;;;;4.05;1.15;;;;;;;23.48;100.00;97995.44;4981677;28;20054;-78
2021/07/07 16:07:48;;;;;;;3.15;0.85;;;;;;;23.60;100.00;98008.09;4999120;28;20129;-78
2021/07/07 16:10:15;;;;;;;1.73;1.00;;;;;;;23.52;100.00;97999.00;4999300;28;20052;-78
2021/07/07 16:12:41;;;;;;;3.25;1.10;;;;;;;23.35;100.00;98002.47;5001630;28;20046;-79
2021/07/07 16:15:09;;;;;;;1.40;0.90;;;;;;;23.43;100.00;98003.31;4997049;28;20077;-78
2021/07/07 16:17:35;;;;;;;2.72;1.20;;;;;;;23.20;100.00;98005.59;5009826;28;20556;-79
2021/07/07 16:20:03;;;;;;;2.25;0.98;;;;;;;23.41;100.00;98003.69;4980760;28;20429;-78
2021/07/07 16:22:30;;;;;;;3.00;1.13;;;;;;;23.37;100.00;98005.66;4978883;28;20066;-78
2021/07/07 16:24:58;;;;;;;5.70;1.10;;;;;;;23.69;100.00;98018.78;4998045;28;20045;-78
2021/07/07 16:27:25;;;;;;;2.38;1.38;;;;;;;23.37;100.00;98016.72;4997155;28;20071;-79
2021/07/07 16:29:51;;;;;;;4.57;1.30;;;;;;;23.09;100.00;98021.31;4972906;28;20046;-79
2021/07/07 16:32:18;;;;;;;4.25;1.20;;;;;;;23.04;100.00;98036.28;4989938;28;20065;-77
2021/07/07 16:34:47;;;;;;;5.30;2.72;;;;;;;23.30;100.00;98013.13;4989626;28;20508;-77
2021/07/07 16:37:14;;;;;;;6.03;3.80;;;;;;;23.45;100.00;98021.09;4989618;28;20046;-78
2021/07/07 16:39:43;;;;;;;2.33;2.00;;;;;;;23.46;100.00;98019.91;4974950;28;20042;-78
2021/07/07 16:42:10;;;;;;;2.50;1.10;;;;;;;23.79;100.00;98034.63;4993473;28;20137;-77
2021/07/07 16:44:36;;;;;;;2.38;1.33;;;;;;;23.51;100.00;98032.56;4993223;28;20045;-78
2021/07/07 16:47:03;;;;;;;4.00;1.30;;;;;;;23.59;100.00;98027.84;5010611;28;20038;-76
2021/07/07 16:49:30;;;;;;;5.53;1.25;;;;;;;23.43;100.00;98017.16;5012923;28;20054;-81
2021/07/07 16:51:57;;;;;;;2.42;1.00;;;;;;;23.31;100.00;98023.78;5022558;28;20120;-81
2021/07/07 16:54:23;;;;;;;3.13;1.00;;;;;;;22.69;100.00;98017.53;5031138;28;20033;-82
2021/07/07 16:56:50;;;;;;;2.00;1.00;;;;;;;23.07;100.00;98027.22;5033670;28;20051;-80
2021/07/07 16:59:17;;;;;;;4.72;1.20;;;;;;;22.89;100.00;98029.13;5050835;28;20061;-82
2021/07/07 17:01:43;;;;;;;4.72;1.00;;;;;;;22.83;100.00;98016.84;5051364;28;20107;-82
2021/07/07 17:04:10;;;;;;;3.05;1.17;;;;;;;22.52;100.00;98023.72;5054630;28;20060;-83
2021/07/07 17:06:36;;;;;;;3.17;1.17;;;;;;;23.20;100.00;98022.16;5056717;28;20097;-84
2021/07/07 17:09:05;;;;;;;2.03;1.10;;;;;;;23.53;100.00;98011.66;5054021;28;20068;-82
2021/07/07 17:11:34;;;;;;;2.38;1.10;;;;;;;23.49;100.00;97996.22;5046904;28;20073;-83
2021/07/07 17:14:01;;;;;;;1.35;1.02;;;;;;;23.84;100.00;98007.38;4992183;28;20038;-81
2021/07/07 17:16:28;;;;;;;1.50;1.10;;;;;;;23.94;100.00;98019.63;5009452;28;20050;-84
2021/07/07 17:18:57;;;;;;;3.15;1.17;;;;;;;23.31;100.00;98029.28;4992541;28;20030;-84
2021/07/07 17:21:24;;;;;;;2.53;1.10;;;;;;;22.93;100.00;98038.19;5031486;28;20064;-82
2021/07/07 17:23:51;;;;;;;1.92;1.00;;;;;;;22.83;100.00;98025.91;5036050;28;20042;-84
2021/07/07 17:26:17;;;;;;;1.85;1.08;;;;;;;22.69;100.00;98034.09;5027401;28;20046;-82
2021/07/07 17:28:44;;;;;;;3.72;1.10;;;;;;;22.37;100.00;98030.31;5028580;28;20061;-83
2021/07/07 17:31:11;;;;;;;2.33;1.20;;;;;;;22.06;100.00;98039.09;5026977;28;20066;-82
2021/07/07 17:33:38;;;;;;;1.80;1.08;;;;;;;22.07;100.00;98044.22;5018156;28;20041;-81